Flight Track Log - Related Links

Times and Time Zones

All times are in EDT time to prevent confusion due to time zone crossing. See the ASQ4421 flight status page for this flight to view local times or setup timezone preferences in your user account.

Time Position Orientation Groundspeed Altitude Reporting Facility
EDT Latitude Longitude Course Direction KTS MPH feet Rate Location/Type
Sat 10:06:44 AM 26.1950 -98.1847 45° Northeast 206 237 2,800  Level Houston Center
Sat 10:07:03 AM 26.2150 -98.1747 24° Northeast 217 250 3,100 1,770 Climbing Houston Center
Sat 10:07:45 AM 26.2631 -98.1525 23° Northeast 285 328 4,600 2,262 Climbing Houston Center
Sat 10:08:04 AM 26.2872 -98.1439 18° North 270 311 5,400 2,222 Climbing Houston Center
Sat 10:09:06 AM 26.3583 -98.1142 21° North 272 313 7,600 2,000 Climbing Houston Center
Sat 10:10:00 AM 26.6366 -98.0115 22° Northeast  Level FlightAware Approximate
Sat 10:10:07 AM 26.4386 -98.0800 21° North 286 329 9,500  Level Houston Center
Sat 10:11:09 AM 26.5194 -98.0447 21° North 313 360 10,500 878 Climbing Houston Center
Sat 10:12:10 AM 26.6114 -98.0053 21° North 353 406 11,300 976 Climbing Houston Center
Sat 10:13:12 AM 26.7144 -97.9611 21° North 369 425 12,500 1,171 Climbing Houston Center
Sat 10:14:13 AM 26.8108 -97.9203 21° North 370 426 13,700 1,220 Climbing Houston Center
Sat 10:15:15 AM 26.9122 -97.8722 23° Northeast 371 427 15,000 1,122 Climbing Houston Center
Sat 10:16:16 AM 27.0044 -97.8147 29° Northeast 372 428 16,000 927 Climbing Houston Center
Sat 10:17:18 AM 27.0992 -97.7564 29° Northeast 377 434 16,900 829 Climbing Houston Center
Sat 10:18:19 AM 27.1944 -97.6972 29° Northeast 383 441 17,700 780 Climbing Houston Center
Sat 10:19:21 AM 27.2908 -97.6369 29° Northeast 386 444 18,500 774 Climbing Houston Center
Sat 10:20:23 AM 27.3881 -97.5769 29° Northeast 391 450 19,300 829 Climbing Houston Center
Sat 10:21:24 AM 27.4858 -97.5153 29° Northeast 395 455 20,200 829 Climbing Houston Center
Sat 10:22:26 AM 27.5850 -97.4536 29° Northeast 396 456 21,000 726 Climbing Houston Center
Sat 10:23:28 AM 27.6839 -97.3914 29° Northeast 397 457 21,700 732 Climbing Houston Center
Sat 10:24:29 AM 27.7897 -97.3253 29° Northeast 397 457 22,500 634 Climbing Houston Center
Sat 10:25:31 AM 27.8889 -97.2628 29° Northeast 397 457 23,000 242 Climbing Houston Center
Sat 10:26:33 AM 27.9892 -97.1992 29° Northeast 402 463 23,000  Level Houston Center
Sat 10:27:34 AM 28.0931 -97.1331 29° Northeast 420 483 23,000  Level Houston Center
Sat 10:28:36 AM 28.1983 -97.0667 29° Northeast 422 486 23,000  Level Houston Center
Sat 10:29:38 AM 28.2892 -97.0092 29° Northeast 427 491 23,000  Level Houston Center
Sat 10:30:39 AM 28.4139 -96.9303 29° Northeast 427 491 23,000  Level Houston Center
Sat 10:31:41 AM 28.5167 -96.8628 30° Northeast 428 493 23,000  Level Houston Center
Sat 10:32:43 AM 28.6217 -96.7972 29° Northeast 429 494 23,000  Level Houston Center
Sat 10:33:44 AM 28.7261 -96.7300 29° Northeast 432 497 23,000  Level Houston Center
Sat 10:34:46 AM 28.8308 -96.6619 30° Northeast 433 498 23,000  Level Houston Center
Sat 10:35:48 AM 28.9350 -96.5944 30° Northeast 434 499 23,000  Level Houston Center
Sat 10:36:51 AM 29.0617 -96.5128 29° Northeast 436 502 23,000  Level Houston Center
Sat 10:37:51 AM 29.1672 -96.4456 29° Northeast 437 503 23,000 -49 Level Houston Center
Sat 10:38:53 AM 29.2719 -96.3778 29° Northeast 437 503 22,900 -823 Descending Houston Center
Sat 10:39:55 AM 29.3778 -96.3097 29° Northeast 438 504 21,300 -1,645 Descending Houston Center
Sat 10:40:57 AM 29.4728 -96.2469 30° Northeast 403 464 19,500 -1,950 Descending Houston Center
Sat 10:41:15 AM 29.5144 -96.2206 29° Northeast 382 440 18,700 -1,742 Descending Houston Center
Sat 10:41:59 AM 29.5561 -96.1761 43° Northeast 383 441 17,700 -1,964 Descending Houston Center
Sat 10:42:10 AM 29.5747 -96.1394 60° Northeast 363 418 16,900 -2,754 Descending Houston Center
Sat 10:43:00 AM 29.6144 -96.0569 61° Northeast 361 415 14,900 -2,262 Descending Houston Center
Sat 10:43:11 AM 29.6208 -96.0406 66° East 349 402 14,600 -1,667 Descending Houston Center
Sat 10:44:12 AM 29.6669 -95.9439 61° Northeast 329 379 12,900 -1,434 Descending Houston Center
Sat 10:45:04 AM 29.7017 -95.8739 60° Northeast 313 360 11,900 -1,263 Descending Houston Center
Sat 10:46:06 AM 29.7419 -95.7867 62° Northeast 306 352 10,500 -1,210 Descending Houston Center
Sat 10:47:08 AM 29.7831 -95.7008 61° Northeast 306 352 9,400 -1,113 Descending Houston Center
Sat 10:48:10 AM 29.8231 -95.6147 62° Northeast 304 350 8,200 -1,360 Descending Houston Center
Sat 10:48:23 AM 29.8347 -95.5878 63° Northeast 302 348 7,700 -1,500 Descending Houston Center
Sat 10:49:18 AM 29.8700 -95.5111 62° Northeast 284 327 6,500 -919 Descending Houston Center
Sat 10:50:14 AM 29.8925 -95.4528 66° East 273 314 6,000 -254 Descending Houston Center
Sat 10:51:16 AM 29.8925 -95.3444 90° East 280 322 6,000  Level Houston Center
Sat 10:52:18 AM 29.8917 -95.2556 91° East 279 321 6,000 -290 Level Houston Center
Sat 10:53:20 AM 29.8908 -95.1736 91° East 257 296 5,400 -1,161 Descending Houston Center
Sat 10:54:22 AM 29.8947 -95.0933 87° East 260 299 3,600 -1,569 Descending Houston Center
Sat 10:55:30 AM 29.9667 -95.1017 354° North 224 258 2,000 -738 Descending Houston Center
Sat 10:56:32 AM 29.9769 -95.1681 280° West 213 245 2,000 -305 Level Houston Center
Sat 10:57:28 AM 29.9772 -95.2281 270° West 217 250 1,400 -661 Descending Houston Center
Sat 10:58:30 AM 29.9769 -95.2742 270° West 176 203 700 -532 Descending Houston Center
Sat 10:59:32 AM 29.9764 -95.3128 269° West 161 185 300 -387 Descending Houston Center

Login

Don't have an account? Register now (free) for customized features, flight alerts, and more!